createdAt,value
2023-03-03T02:05:33.364Z,100663.06
2023-03-03T02:08:39.545Z,100665.22
2023-03-03T02:11:47.046Z,100663.84
2023-03-03T02:14:48.737Z,100671.00
2023-03-03T02:17:53.500Z,100667.44
2023-03-03T02:21:02.403Z,100662.16
2023-03-03T02:24:09.328Z,100659.09
2023-03-03T02:27:13.977Z,100666.88
2023-03-03T02:30:20.790Z,100661.72
2023-03-03T02:33:22.817Z,100657.91
2023-03-03T02:36:26.297Z,100664.56
2023-03-03T02:39:30.476Z,100659.19
2023-03-03T02:42:34.534Z,100659.25
2023-03-03T02:45:45.502Z,100652.06
2023-03-03T02:48:47.309Z,100650.03
2023-03-03T02:51:52.275Z,100642.50
2023-03-03T02:54:54.100Z,100652.09
2023-03-03T02:57:57.692Z,100651.28
2023-03-03T03:01:00.817Z,100655.53
2023-03-03T03:04:06.520Z,100635.38
2023-03-03T03:07:11.743Z,100648.31
2023-03-03T03:10:14.242Z,100650.16
2023-03-03T03:13:18.401Z,100648.69
2023-03-03T03:16:20.108Z,100654.34
2023-03-03T03:19:22.013Z,100645.69
2023-03-03T03:22:24.054Z,100648.75
2023-03-03T03:25:26.388Z,100655.09
2023-03-03T03:28:29.800Z,100649.81
2023-03-03T03:31:31.937Z,100649.81
2023-03-03T03:34:33.625Z,100646.72
2023-03-03T03:37:35.519Z,100647.09
2023-03-03T03:40:37.358Z,100653.09
2023-03-03T03:43:40.773Z,100648.09
2023-03-03T03:46:42.624Z,100645.41
2023-03-03T03:49:45.474Z,100657.44
2023-03-03T03:52:47.881Z,100660.66
2023-03-03T03:55:49.833Z,100659.34
2023-03-03T03:58:54.488Z,100658.22
2023-03-03T04:01:56.576Z,100658.06
2023-03-03T04:04:59.673Z,100656.88
2023-03-03T04:08:01.809Z,100651.16
2023-03-03T04:11:03.663Z,100655.31
2023-03-03T04:14:07.677Z,100663.47
2023-03-03T04:17:16.777Z,100664.97
2023-03-03T04:20:18.827Z,100667.66
2023-03-03T04:23:21.509Z,100659.50
2023-03-03T04:26:24.173Z,100658.47
2023-03-03T04:29:27.785Z,100664.72
2023-03-03T04:32:30.540Z,100670.63
2023-03-03T04:35:32.451Z,100673.69
2023-03-03T04:38:34.820Z,100677.56
2023-03-03T04:41:37.105Z,100671.31
2023-03-03T04:44:40.722Z,100676.47
2023-03-03T04:47:43.250Z,100674.97
2023-03-03T04:50:45.022Z,100672.59
2023-03-03T04:53:47.380Z,100676.59
2023-03-03T04:56:49.368Z,100672.19
2023-03-03T04:59:53.469Z,100688.03
2023-03-03T05:02:55.397Z,100690.28
2023-03-03T05:05:58.536Z,100697.56
2023-03-03T05:09:00.381Z,100707.44
2023-03-03T05:12:02.225Z,100709.34
2023-03-03T05:15:07.203Z,100711.53
2023-03-03T05:18:09.018Z,100703.38
2023-03-03T05:21:11.644Z,100706.66
2023-03-03T05:24:14.648Z,100706.50
2023-03-03T05:27:16.976Z,100711.22
2023-03-03T05:30:20.286Z,100710.19
2023-03-03T05:33:22.010Z,100714.88
2023-03-03T05:36:23.959Z,100725.97
2023-03-03T05:39:25.643Z,100722.22
2023-03-03T05:42:27.527Z,100721.53
2023-03-03T05:45:30.577Z,100710.78
2023-03-03T05:48:32.414Z,100712.69
2023-03-03T05:51:34.519Z,100713.38
2023-03-03T05:54:36.468Z,100717.78
2023-03-03T05:57:38.354Z,100717.06
2023-03-03T06:00:41.592Z,100720.59
2023-03-03T06:03:43.690Z,100719.44
2023-03-03T06:06:45.675Z,100728.13
2023-03-03T06:09:47.472Z,100731.84
2023-03-03T06:12:49.198Z,100730.63
2023-03-03T06:15:52.278Z,100726.75
2023-03-03T06:18:54.104Z,100739.03
2023-03-03T06:21:55.905Z,100737.19
2023-03-03T06:24:57.821Z,100749.38
2023-03-03T06:27:59.868Z,100758.03
2023-03-03T06:31:03.067Z,100763.72
2023-03-03T06:34:04.912Z,100777.28
2023-03-03T06:37:06.820Z,100788.56
2023-03-03T06:40:10.016Z,100796.50
2023-03-03T06:43:12.115Z,100789.78
2023-03-03T06:46:15.448Z,100791.66
2023-03-03T06:49:17.549Z,100785.72
2023-03-03T06:52:23.082Z,100790.19
2023-03-03T06:55:24.805Z,100804.41
2023-03-03T06:58:29.505Z,100795.25
2023-03-03T07:01:37.108Z,100795.84
2023-03-03T07:04:39.597Z,100799.69
2023-03-03T07:07:41.583Z,100810.75
2023-03-03T07:10:44.243Z,100811.94
2023-03-03T07:13:48.489Z,100814.25
2023-03-03T07:16:58.131Z,100815.19
2023-03-03T07:20:01.973Z,100815.88
2023-03-03T07:23:18.785Z,100817.75
2023-03-03T07:26:23.836Z,100818.09
2023-03-03T07:29:27.583Z,100829.00
2023-03-03T07:32:39.931Z,100839.91
2023-03-03T07:35:44.426Z,100826.31
2023-03-03T07:38:53.043Z,100829.78
2023-03-03T07:42:01.750Z,100836.53
2023-03-03T07:45:23.581Z,100841.28
2023-03-03T07:48:34.693Z,100856.06
2023-03-03T07:51:43.978Z,100855.53
2023-03-03T07:54:47.372Z,100857.56
2023-03-03T07:57:51.714Z,100856.75
2023-03-03T08:01:25.993Z,100873.31
2023-03-03T08:04:39.139Z,100871.69
2023-03-03T08:07:40.875Z,100878.84
2023-03-03T08:10:48.210Z,100876.16
2023-03-03T08:13:49.974Z,100872.38
2023-03-03T08:16:51.813Z,100881.00
2023-03-03T08:19:56.021Z,100883.31
2023-03-03T08:22:57.893Z,100872.41
2023-03-03T08:25:59.860Z,100872.09
2023-03-03T08:29:01.645Z,100861.09
2023-03-03T08:32:03.820Z,100865.53
2023-03-03T08:35:07.637Z,100857.81
2023-03-03T08:38:09.981Z,100854.72
2023-03-03T08:41:11.935Z,100865.06
2023-03-03T08:44:13.621Z,100873.59
2023-03-03T08:47:15.688Z,100873.25
2023-03-03T08:50:19.493Z,100881.72
2023-03-03T08:53:22.915Z,100880.72
2023-03-03T08:56:24.632Z,100883.00
2023-03-03T08:59:26.245Z,100886.75
2023-03-03T09:02:28.180Z,100881.34
2023-03-03T09:05:31.673Z,100893.78
2023-03-03T09:08:33.826Z,100879.16
2023-03-03T09:11:35.528Z,100884.69
2023-03-03T09:14:37.422Z,100880.28
2023-03-03T09:17:43.850Z,100890.22
2023-03-03T09:20:49.460Z,100881.44
2023-03-03T09:23:55.582Z,100880.03
2023-03-03T09:26:59.013Z,100880.38
2023-03-03T09:30:02.684Z,100884.56
2023-03-03T09:33:23.225Z,100883.59
2023-03-03T09:36:35.691Z,100887.53
2023-03-03T09:39:37.564Z,100887.22
2023-03-03T09:43:04.238Z,100890.25
2023-03-03T09:46:17.080Z,100895.41
2023-03-03T09:49:30.610Z,100903.31
2023-03-03T09:52:41.049Z,100904.75
2023-03-03T09:55:54.168Z,100904.09
2023-03-03T09:59:07.850Z,100904.84
2023-03-03T10:02:38.435Z,100904.13
2023-03-03T10:05:51.319Z,100913.88
2023-03-03T10:09:04.610Z,100908.75
2023-03-03T10:12:17.923Z,100915.75
2023-03-03T10:15:40.447Z,100912.25
2023-03-03T10:18:52.214Z,100903.28
2023-03-03T10:22:00.576Z,100898.94
2023-03-03T10:25:16.408Z,100906.06
2023-03-03T10:28:43.638Z,100909.84
2023-03-03T10:31:58.573Z,100909.81
2023-03-03T10:35:23.316Z,100908.22
2023-03-03T10:38:35.538Z,100909.25
2023-03-03T10:41:50.321Z,100919.94
2023-03-03T10:45:14.025Z,100913.94
2023-03-03T10:48:41.039Z,100916.91
2023-03-03T10:52:01.017Z,100915.25
2023-03-03T10:55:30.606Z,100911.59
2023-03-03T10:58:47.324Z,100923.34
2023-03-03T11:01:57.586Z,100916.47
2023-03-03T11:05:29.547Z,100909.91
2023-03-03T11:08:38.199Z,100910.47
2023-03-03T11:11:47.436Z,100914.41
2023-03-03T11:14:59.112Z,100911.13
2023-03-03T11:18:15.072Z,100901.41
2023-03-03T11:21:22.894Z,100914.69
2023-03-03T11:24:40.275Z,100915.06
2023-03-03T11:28:00.569Z,100914.31
2023-03-03T11:31:13.764Z,100899.28
2023-03-03T11:34:34.096Z,100894.25
2023-03-03T11:37:41.887Z,100890.00
2023-03-03T11:40:48.672Z,100888.94
2023-03-03T11:43:55.223Z,100891.44
2023-03-03T11:47:00.641Z,100878.19
2023-03-03T11:50:08.592Z,100891.06
2023-03-03T11:53:26.628Z,100869.72
2023-03-03T11:56:38.274Z,100874.47
2023-03-03T11:59:52.222Z,100867.03
2023-03-03T12:03:26.531Z,100868.97
2023-03-03T12:06:40.788Z,100864.41
2023-03-03T12:09:49.882Z,100863.81
2023-03-03T12:13:01.245Z,100858.63
2023-03-03T12:16:11.113Z,100857.72
2023-03-03T12:19:24.938Z,100850.25
2023-03-03T12:22:34.662Z,100855.00
2023-03-03T12:25:41.066Z,100857.88
2023-03-03T12:28:50.267Z,100856.50
2023-03-03T12:31:56.411Z,100849.78
2023-03-03T12:35:06.524Z,100848.84
2023-03-03T12:38:21.876Z,100845.81
2023-03-03T12:41:31.525Z,100836.44
2023-03-03T12:44:41.868Z,100833.84
2023-03-03T12:47:50.177Z,100830.91
2023-03-03T12:51:01.688Z,100823.53
2023-03-03T12:54:19.305Z,100827.69
2023-03-03T12:57:28.987Z,100818.84
2023-03-03T13:00:43.005Z,100821.06
2023-03-03T13:03:57.201Z,100803.56
2023-03-03T13:07:07.747Z,100803.84
2023-03-03T13:10:18.557Z,100813.03
2023-03-03T13:13:27.187Z,100804.84
2023-03-03T13:16:41.199Z,100808.41
2023-03-03T13:19:52.058Z,100807.06
2023-03-03T13:22:59.970Z,100800.78
2023-03-03T13:26:14.374Z,100807.66
2023-03-03T13:29:22.052Z,100804.06
2023-03-03T13:32:30.954Z,100800.47
2023-03-03T13:35:43.709Z,100802.88
2023-03-03T13:38:49.276Z,100805.75
2023-03-03T13:42:01.190Z,100800.81
2023-03-03T13:45:12.816Z,100799.72
2023-03-03T13:48:28.607Z,100788.00
2023-03-03T13:51:43.802Z,100792.31
2023-03-03T13:55:20.579Z,100779.97
2023-03-03T13:58:40.608Z,100781.56
2023-03-03T14:01:57.435Z,100777.06
2023-03-03T14:05:02.271Z,100772.78
2023-03-03T14:08:09.284Z,100769.63
2023-03-03T14:11:16.970Z,100766.16
2023-03-03T14:14:31.549Z,100766.22
2023-03-03T14:17:41.932Z,100758.22
2023-03-03T14:20:48.428Z,100759.88
2023-03-03T14:23:57.193Z,100755.50
2023-03-03T14:27:00.523Z,100758.59
2023-03-03T14:30:33.002Z,100759.84
2023-03-03T14:33:35.118Z,100748.28
2023-03-03T14:36:40.141Z,100743.03
2023-03-03T14:39:48.908Z,100749.25
2023-03-03T14:42:55.532Z,100743.00
2023-03-03T14:46:30.366Z,100748.59
2023-03-03T14:49:34.556Z,100757.84
2023-03-03T14:52:38.859Z,100745.78
2023-03-03T14:56:22.950Z,100743.50
2023-03-03T14:59:26.978Z,100741.50
2023-03-03T15:02:36.798Z,100748.91
2023-03-03T15:05:50.850Z,100745.63
2023-03-03T15:08:52.580Z,100741.03
2023-03-03T15:11:55.225Z,100737.66
2023-03-03T15:15:11.610Z,100742.88
2023-03-03T15:18:16.836Z,100745.94
2023-03-03T15:21:23.852Z,100748.56
2023-03-03T15:24:35.372Z,100738.22
2023-03-03T15:27:42.259Z,100747.47
2023-03-03T15:30:50.695Z,100747.47
2023-03-03T15:34:03.929Z,100748.22
2023-03-03T15:37:18.031Z,100749.34
2023-03-03T15:40:26.841Z,100748.56
2023-03-03T15:43:37.619Z,100752.88
2023-03-03T15:46:50.693Z,100745.44
2023-03-03T15:50:10.855Z,100751.91
2023-03-03T15:53:31.534Z,100757.75
2023-03-03T15:56:41.438Z,100756.47
2023-03-03T16:00:09.286Z,100755.81
2023-03-03T16:03:17.310Z,100750.44
2023-03-03T16:06:28.582Z,100750.19
2023-03-03T16:09:45.027Z,100752.19
2023-03-03T16:12:55.422Z,100748.72
2023-03-03T16:16:09.176Z,100756.09
2023-03-03T16:19:22.084Z,100756.38
2023-03-03T16:22:40.958Z,100772.94
2023-03-03T16:26:05.554Z,100768.88
2023-03-03T16:29:30.894Z,100775.78
2023-03-03T16:32:40.614Z,100779.97
2023-03-03T16:35:50.644Z,100781.38
2023-03-03T16:39:01.922Z,100788.25
2023-03-03T16:42:07.840Z,100791.69
2023-03-03T16:45:23.963Z,100795.50
2023-03-03T16:48:35.335Z,100802.88
2023-03-03T16:51:49.233Z,100799.19
2023-03-03T16:54:56.832Z,100801.91
2023-03-03T16:58:12.701Z,100812.53
2023-03-03T17:01:23.978Z,100812.47
2023-03-03T17:04:39.912Z,100818.16
2023-03-03T17:07:45.284Z,100828.44
2023-03-03T17:10:54.047Z,100829.63
2023-03-03T17:14:16.545Z,100831.50
2023-03-03T17:17:29.114Z,100834.81
2023-03-03T17:20:40.042Z,100828.84
2023-03-03T17:23:51.975Z,100834.94
2023-03-03T17:27:05.355Z,100836.09
2023-03-03T17:30:16.896Z,100850.84
2023-03-03T17:33:33.013Z,100858.56
2023-03-03T17:36:49.526Z,100858.00
2023-03-03T17:40:05.600Z,100857.56
2023-03-03T17:43:15.072Z,100863.81
2023-03-03T17:46:23.320Z,100869.38
2023-03-03T17:49:54.501Z,100885.34
2023-03-03T17:53:12.397Z,100887.38
2023-03-03T17:56:19.600Z,100876.38
2023-03-03T17:59:44.262Z,100888.38
2023-03-03T18:03:27.906Z,100889.44
2023-03-03T18:06:52.067Z,100890.72
2023-03-03T18:10:17.962Z,100891.56
2023-03-03T18:13:41.505Z,100900.13
2023-03-03T18:16:50.900Z,100899.44
2023-03-03T18:20:08.161Z,100899.38
2023-03-03T18:23:29.699Z,100906.63
2023-03-03T18:26:40.587Z,100914.03
2023-03-03T18:30:20.588Z,100918.84
2023-03-03T18:33:41.483Z,100919.00
2023-03-03T18:36:53.336Z,100918.16
2023-03-03T18:40:34.190Z,100926.78
2023-03-03T18:43:55.481Z,100922.13
2023-03-03T18:46:59.207Z,100920.25
2023-03-03T18:50:16.260Z,100921.28
2023-03-03T18:53:28.184Z,100921.50
2023-03-03T18:56:44.880Z,100924.63
2023-03-03T18:59:55.286Z,100929.06
2023-03-03T19:02:59.840Z,100922.22
2023-03-03T19:06:04.922Z,100931.97
2023-03-03T19:09:09.307Z,100937.69
2023-03-03T19:12:13.659Z,100936.16
2023-03-03T19:15:53.389Z,100936.97
2023-03-03T19:19:00.095Z,100945.47
2023-03-03T19:22:23.702Z,100944.53
2023-03-03T19:25:27.825Z,100951.41
2023-03-03T19:28:40.239Z,100948.69
2023-03-03T19:31:49.190Z,100946.91
2023-03-03T19:34:58.053Z,100949.53
2023-03-03T19:38:15.506Z,100953.84
2023-03-03T19:41:28.456Z,100959.75
2023-03-03T19:44:46.300Z,100954.06
2023-03-03T19:47:54.558Z,100958.44
2023-03-03T19:51:04.395Z,100965.59
2023-03-03T19:54:20.216Z,100974.97
2023-03-03T19:57:37.099Z,100968.22
2023-03-03T20:00:43.374Z,100960.50
2023-03-03T20:04:16.522Z,100966.00
2023-03-03T20:07:28.913Z,100973.06
2023-03-03T20:10:49.364Z,100975.34
2023-03-03T20:14:02.130Z,100974.13
2023-03-03T20:17:24.599Z,100982.00
2023-03-03T20:20:45.827Z,100983.91
2023-03-03T20:24:00.166Z,100989.97
2023-03-03T20:27:07.416Z,100991.56
2023-03-03T20:30:22.156Z,101001.22
2023-03-03T20:33:37.373Z,100998.41
2023-03-03T20:36:52.267Z,101004.19
2023-03-03T20:40:07.315Z,101003.31
2023-03-03T20:43:26.214Z,101007.84
2023-03-03T20:46:38.858Z,101010.88
2023-03-03T20:50:04.511Z,101010.56
2023-03-03T20:53:18.237Z,101015.59
2023-03-03T20:56:24.444Z,101015.63
2023-03-03T20:59:35.467Z,101015.03
2023-03-03T21:02:46.987Z,101012.75
2023-03-03T21:05:57.653Z,101012.44
2023-03-03T21:08:59.542Z,101013.69
2023-03-03T21:12:09.604Z,101007.28
2023-03-03T21:15:24.131Z,101013.16
2023-03-03T21:18:26.733Z,101017.56
2023-03-03T21:21:31.262Z,101023.78
2023-03-03T21:24:53.805Z,101022.38
2023-03-03T21:28:13.136Z,101027.69
2023-03-03T21:31:17.222Z,101029.78
2023-03-03T21:34:22.278Z,101024.66
2023-03-03T21:37:43.639Z,101028.38
2023-03-03T21:40:59.277Z,101032.59
2023-03-03T21:44:01.163Z,101034.47
2023-03-03T21:47:05.031Z,101032.81
2023-03-03T21:50:08.266Z,101040.38
2023-03-03T21:53:10.064Z,101037.66
2023-03-03T21:56:15.509Z,101040.28
2023-03-03T21:59:17.175Z,101042.44
2023-03-03T22:02:20.702Z,101040.34
2023-03-03T22:05:23.116Z,101042.28
2023-03-03T22:08:24.919Z,101047.47
2023-03-03T22:11:26.720Z,101041.88
2023-03-03T22:14:28.728Z,101047.75
2023-03-03T22:17:35.017Z,101045.91
2023-03-03T22:20:36.722Z,101041.22
2023-03-03T22:23:38.612Z,101049.88
2023-03-03T22:26:40.483Z,101048.22
2023-03-03T22:29:42.254Z,101055.75
2023-03-03T22:32:45.366Z,101055.34
2023-03-03T22:35:47.169Z,101058.66
2023-03-03T22:38:49.184Z,101054.88
2023-03-03T22:41:54.030Z,101060.03
2023-03-03T22:44:56.364Z,101061.22
2023-03-03T22:47:59.626Z,101062.13
2023-03-03T22:51:01.367Z,101064.72
2023-03-03T22:54:03.259Z,101059.13
2023-03-03T22:57:04.975Z,101071.34
2023-03-03T23:00:11.881Z,101067.34
2023-03-03T23:03:15.984Z,101070.38
2023-03-03T23:06:21.515Z,101069.69
2023-03-03T23:09:23.436Z,101076.25
2023-03-03T23:12:25.334Z,101075.31
2023-03-03T23:15:27.800Z,101083.97
2023-03-03T23:18:31.121Z,101074.63
2023-03-03T23:21:33.599Z,101074.63
2023-03-03T23:24:35.385Z,101072.28
2023-03-03T23:27:37.712Z,101073.44
2023-03-03T23:30:39.412Z,101078.34
2023-03-03T23:33:42.444Z,101082.56
2023-03-03T23:36:44.219Z,101078.59
2023-03-03T23:39:46.214Z,101082.84
2023-03-03T23:42:48.605Z,101076.72
2023-03-03T23:45:50.349Z,101078.38
2023-03-03T23:48:53.356Z,101082.09
2023-03-03T23:51:55.120Z,101076.72
2023-03-03T23:54:56.942Z,101081.41
2023-03-03T23:57:58.806Z,101091.00
